createdAt,value
2019-05-26T00:00:31.103Z,100635.62
2019-05-26T00:03:25.929Z,100637.73
2019-05-26T00:06:13.159Z,100630.86
2019-05-26T00:09:00.410Z,100624.61
2019-05-26T00:11:48.382Z,100621.85
2019-05-26T00:14:35.190Z,100622.11
2019-05-26T00:17:22.956Z,100616.13
2019-05-26T00:20:10.045Z,100611.36
2019-05-26T00:23:04.038Z,100611.16
2019-05-26T00:25:50.956Z,100615.27
2019-05-26T00:28:38.176Z,100620.13
2019-05-26T00:31:39.570Z,100619.27
2019-05-26T00:34:41.117Z,100616.24
2019-05-26T00:37:28.739Z,100616.74
2019-05-26T00:40:29.978Z,100616.31
2019-05-26T00:43:24.872Z,100614.92
2019-05-26T00:46:11.803Z,100611.73
2019-05-26T00:49:12.765Z,100616.47
2019-05-26T00:52:06.901Z,100611.27
2019-05-26T00:58:02.060Z,100608.47
2019-05-26T01:00:50.482Z,100612.23
2019-05-26T01:03:37.999Z,100609.42
2019-05-26T01:06:24.813Z,100611.27
2019-05-26T01:09:12.450Z,100610.02
2019-05-26T01:12:08.459Z,100608.61
2019-05-26T01:14:53.656Z,100607.30
2019-05-26T01:17:40.707Z,100609.88
2019-05-26T01:20:29.514Z,100614.44
2019-05-26T01:23:16.599Z,100612.67
2019-05-26T01:26:03.730Z,100610.98
2019-05-26T01:32:11.078Z,100609.08
2019-05-26T01:34:57.934Z,100602.66
2019-05-26T01:37:45.542Z,100606.73
2019-05-26T01:40:36.444Z,100603.28
2019-05-26T01:49:50.293Z,100594.21
2019-05-26T01:55:44.707Z,100594.76
2019-05-26T01:58:49.103Z,100594.55
2019-05-26T02:01:36.200Z,100590.80
2019-05-26T02:04:37.598Z,100600.73
2019-05-26T02:07:28.382Z,100595.08
2019-05-26T02:10:15.689Z,100594.08
2019-05-26T02:13:04.436Z,100594.23
2019-05-26T02:15:52.373Z,100590.48
2019-05-26T02:18:41.435Z,100586.75
2019-05-26T02:21:28.383Z,100587.77
2019-05-26T02:24:15.790Z,100577.66
2019-05-26T02:27:03.809Z,100584.30
2019-05-26T02:29:52.376Z,100577.70
2019-05-26T02:32:39.477Z,100581.19
2019-05-26T02:35:30.392Z,100576.11
2019-05-26T02:38:26.311Z,100574.24
2019-05-26T02:41:11.183Z,100570.58
2019-05-26T02:44:12.709Z,100575.08
2019-05-26T02:46:59.964Z,100573.13
2019-05-26T02:49:47.144Z,100567.57
2019-05-26T02:52:37.739Z,100567.41
2019-05-26T02:55:25.792Z,100572.33
2019-05-26T02:58:12.663Z,100572.56
2019-05-26T03:00:59.941Z,100575.56
2019-05-26T03:03:47.990Z,100567.97
2019-05-26T03:09:41.225Z,100570.88
2019-05-26T03:12:28.443Z,100565.33
2019-05-26T03:15:18.931Z,100565.92
2019-05-26T03:18:06.856Z,100566.03
2019-05-26T03:21:01.442Z,100568.41
2019-05-26T03:23:48.270Z,100576.09
2019-05-26T03:26:36.389Z,100576.95
2019-05-26T03:29:23.233Z,100568.13
2019-05-26T03:32:10.455Z,100570.30
2019-05-26T03:34:57.964Z,100574.64
2019-05-26T03:40:51.516Z,100567.91
2019-05-26T03:43:39.144Z,100569.27
2019-05-26T03:46:25.992Z,100572.37
2019-05-26T03:49:13.084Z,100567.45
2019-05-26T03:52:02.022Z,100575.19
2019-05-26T03:57:56.311Z,100576.19
2019-05-26T04:00:43.234Z,100568.83
2019-05-26T04:03:30.034Z,100572.30
2019-05-26T04:06:17.206Z,100574.88
2019-05-26T04:09:06.523Z,100569.69
2019-05-26T04:12:08.368Z,100562.05
2019-05-26T04:14:55.087Z,100561.67
2019-05-26T04:17:49.571Z,100566.11
2019-05-26T04:20:38.116Z,100568.33
2019-05-26T04:23:25.143Z,100573.66
2019-05-26T04:26:15.825Z,100569.78
2019-05-26T04:29:02.737Z,100572.45
2019-05-26T04:31:49.826Z,100568.58
2019-05-26T04:34:37.578Z,100558.09
2019-05-26T04:37:26.307Z,100562.12
2019-05-26T04:40:26.692Z,100560.78
2019-05-26T04:43:04.277Z,100556.38
2019-05-26T04:45:51.619Z,100560.48
2019-05-26T04:48:38.798Z,100574.97
2019-05-26T04:51:25.818Z,100571.86
2019-05-26T04:54:13.420Z,100569.48
2019-05-26T04:57:00.354Z,100560.65
2019-05-26T04:59:47.165Z,100567.67
2019-05-26T05:02:35.481Z,100570.70
2019-05-26T05:05:23.416Z,100565.19
2019-05-26T05:11:23.640Z,100559.72
2019-05-26T05:14:11.576Z,100557.96
2019-05-26T05:16:58.894Z,100552.47
2019-05-26T05:19:46.420Z,100551.98
2019-05-26T05:22:33.682Z,100547.14
2019-05-26T05:28:26.932Z,100540.86
2019-05-26T05:31:13.641Z,100541.47
2019-05-26T05:34:00.815Z,100545.59
2019-05-26T05:36:47.647Z,100540.77
2019-05-26T05:42:41.530Z,100536.40
2019-05-26T05:45:28.410Z,100536.20
2019-05-26T05:54:33.887Z,100537.28
2019-05-26T05:57:20.742Z,100531.50
2019-05-26T06:00:07.523Z,100529.77
2019-05-26T06:02:55.143Z,100529.47
2019-05-26T06:05:42.126Z,100526.45
2019-05-26T06:08:30.566Z,100529.06
2019-05-26T06:11:17.551Z,100528.44
2019-05-26T06:14:04.882Z,100524.21
2019-05-26T06:16:52.051Z,100522.48
2019-05-26T06:19:39.161Z,100517.94
2019-05-26T06:22:26.608Z,100514.36
2019-05-26T06:25:14.424Z,100515.58
2019-05-26T06:28:01.678Z,100511.70
2019-05-26T06:30:48.751Z,100511.55
2019-05-26T06:33:36.994Z,100503.72
2019-05-26T06:36:25.662Z,100504.20
2019-05-26T06:39:12.682Z,100507.55
2019-05-26T06:42:00.508Z,100506.99
2019-05-26T06:44:53.401Z,100508.91
2019-05-26T06:47:34.454Z,100503.34
2019-05-26T06:50:21.763Z,100503.50
2019-05-26T06:53:09.065Z,100497.91
2019-05-26T06:56:03.446Z,100500.00
2019-05-26T06:58:54.482Z,100496.52
2019-05-26T07:01:41.437Z,100494.62
2019-05-26T07:04:28.801Z,100486.23
2019-05-26T07:07:18.179Z,100489.30
2019-05-26T07:10:05.454Z,100493.98
2019-05-26T07:12:52.999Z,100494.08
2019-05-26T07:15:43.441Z,100495.22
2019-05-26T07:18:30.831Z,100488.35
2019-05-26T07:21:17.567Z,100489.83
2019-05-26T07:24:04.504Z,100492.44
2019-05-26T07:26:58.826Z,100491.30
2019-05-26T07:29:45.858Z,100489.08
2019-05-26T07:32:33.047Z,100488.84
2019-05-26T07:35:20.545Z,100489.44
2019-05-26T07:38:07.250Z,100488.40
2019-05-26T07:40:54.417Z,100482.83
2019-05-26T07:43:55.735Z,100485.80
2019-05-26T07:46:42.632Z,100481.37
2019-05-26T07:49:29.704Z,100492.65
2019-05-26T07:52:16.616Z,100482.78
2019-05-26T07:55:17.916Z,100479.19
2019-05-26T07:58:04.927Z,100478.55
2019-05-26T08:00:52.979Z,100481.22
2019-05-26T08:03:39.951Z,100484.03
2019-05-26T08:06:41.541Z,100476.75
2019-05-26T08:09:29.384Z,100470.01
2019-05-26T08:12:25.997Z,100461.20
2019-05-26T08:15:03.713Z,100461.70
2019-05-26T08:17:50.747Z,100454.37
2019-05-26T08:20:38.123Z,100456.09
2019-05-26T08:23:25.461Z,100451.00
2019-05-26T08:26:26.912Z,100448.56
2019-05-26T08:29:28.271Z,100438.78
2019-05-26T08:32:15.495Z,100427.61
2019-05-26T08:35:02.368Z,100428.00
2019-05-26T08:37:49.930Z,100432.37
2019-05-26T08:40:36.945Z,100427.19
2019-05-26T08:43:23.607Z,100419.75
2019-05-26T08:46:10.266Z,100417.31
2019-05-26T08:48:57.302Z,100419.66
2019-05-26T08:51:44.470Z,100415.63
2019-05-26T08:54:31.373Z,100412.88
2019-05-26T08:57:19.601Z,100406.61
2019-05-26T09:00:09.087Z,100411.61
2019-05-26T09:02:57.214Z,100412.72
2019-05-26T09:05:45.963Z,100409.33
2019-05-26T09:08:33.106Z,100408.81
2019-05-26T09:11:21.118Z,100407.45
2019-05-26T09:14:08.109Z,100403.78
2019-05-26T09:16:55.374Z,100397.58
2019-05-26T09:19:42.196Z,100391.10
2019-05-26T09:22:38.014Z,100392.15
2019-05-26T09:25:30.842Z,100384.73
2019-05-26T09:28:17.960Z,100381.49
2019-05-26T09:31:05.265Z,100381.83
2019-05-26T09:33:52.068Z,100375.66
2019-05-26T09:36:39.270Z,100381.08
2019-05-26T09:39:27.145Z,100377.55
2019-05-26T09:42:13.958Z,100370.42
2019-05-26T09:45:02.891Z,100370.77
2019-05-26T09:47:50.642Z,100365.77
2019-05-26T09:50:40.836Z,100374.31
2019-05-26T09:53:27.842Z,100363.80
2019-05-26T09:56:15.243Z,100357.20
2019-05-26T09:59:03.176Z,100359.13
2019-05-26T10:01:50.923Z,100365.02
2019-05-26T10:04:45.026Z,100356.97
2019-05-26T10:07:31.759Z,100353.91
2019-05-26T10:10:18.749Z,100345.14
2019-05-26T10:13:05.506Z,100356.11
2019-05-26T10:15:53.041Z,100347.19
2019-05-26T10:18:39.558Z,100344.25
2019-05-26T10:21:27.744Z,100339.30
2019-05-26T10:24:15.410Z,100343.77
2019-05-26T10:27:02.296Z,100336.23
2019-05-26T10:29:49.464Z,100336.19
2019-05-26T10:32:36.251Z,100327.59
2019-05-26T10:35:23.092Z,100328.91
2019-05-26T10:38:09.867Z,100322.67
2019-05-26T10:40:56.635Z,100327.11
2019-05-26T10:43:47.302Z,100322.27
2019-05-26T10:46:30.053Z,100314.78
2019-05-26T10:49:17.119Z,100312.31
2019-05-26T10:52:03.916Z,100315.63
2019-05-26T10:54:50.889Z,100300.59
2019-05-26T10:57:37.578Z,100296.38
2019-05-26T11:00:24.426Z,100297.61
2019-05-26T11:03:11.504Z,100296.47
2019-05-26T11:05:58.097Z,100300.37
2019-05-26T11:08:44.867Z,100297.52
2019-05-26T11:11:32.091Z,100285.29
2019-05-26T11:14:19.389Z,100289.66
2019-05-26T11:17:06.023Z,100284.53
2019-05-26T11:19:53.387Z,100283.95
2019-05-26T11:22:41.367Z,100280.61
2019-05-26T11:25:27.984Z,100278.38
2019-05-26T11:28:15.303Z,100278.28
2019-05-26T11:31:02.513Z,100272.86
2019-05-26T11:33:49.241Z,100272.56
2019-05-26T11:36:36.252Z,100266.36
2019-05-26T11:39:23.252Z,100265.73
2019-05-26T11:42:13.350Z,100265.17
2019-05-26T11:44:57.559Z,100260.98
2019-05-26T11:47:44.298Z,100247.42
2019-05-26T11:50:31.665Z,100245.58
2019-05-26T11:53:18.534Z,100244.61
2019-05-26T11:56:05.389Z,100240.67
2019-05-26T11:58:52.600Z,100237.17
2019-05-26T12:01:39.972Z,100230.53
2019-05-26T12:04:33.347Z,100233.98
2019-05-26T12:07:20.065Z,100226.34
2019-05-26T12:10:07.353Z,100226.55
2019-05-26T12:12:54.526Z,100232.56
2019-05-26T12:15:41.309Z,100236.41
2019-05-26T12:18:29.296Z,100235.38
2019-05-26T12:21:17.265Z,100218.64
2019-05-26T12:24:04.740Z,100209.37
2019-05-26T12:26:51.871Z,100226.47
2019-05-26T12:29:38.944Z,100217.60
2019-05-26T12:32:25.671Z,100229.63
2019-05-26T12:35:12.318Z,100217.86
2019-05-26T12:37:59.127Z,100212.39
2019-05-26T12:40:46.736Z,100206.59
2019-05-26T12:43:33.979Z,100209.59
2019-05-26T12:46:20.907Z,100203.20
2019-05-26T12:49:07.628Z,100198.88
2019-05-26T12:51:55.014Z,100205.03
2019-05-26T12:54:41.745Z,100203.44
2019-05-26T12:57:28.515Z,100203.80
2019-05-26T13:00:16.301Z,100197.40
2019-05-26T13:03:03.395Z,100194.47
2019-05-26T13:05:50.169Z,100187.36
2019-05-26T13:08:37.360Z,100205.09
2019-05-26T13:11:24.750Z,100194.30
2019-05-26T13:14:11.440Z,100194.88
2019-05-26T13:17:01.401Z,100185.70
2019-05-26T13:19:48.022Z,100186.84
2019-05-26T13:22:34.911Z,100185.88
2019-05-26T13:25:21.937Z,100181.34
2019-05-26T13:28:09.211Z,100182.91
2019-05-26T13:30:56.380Z,100179.70
2019-05-26T13:33:43.391Z,100177.83
2019-05-26T13:36:30.612Z,100170.93
2019-05-26T13:39:17.966Z,100176.22
2019-05-26T13:42:05.473Z,100165.91
2019-05-26T13:44:52.860Z,100169.83
2019-05-26T13:47:39.669Z,100165.44
2019-05-26T13:50:27.094Z,100174.24
2019-05-26T13:53:14.081Z,100161.21
2019-05-26T13:56:01.276Z,100154.38
2019-05-26T13:58:48.211Z,100152.52
2019-05-26T14:01:35.349Z,100159.99
2019-05-26T14:04:22.804Z,100152.67
2019-05-26T14:07:09.598Z,100154.27
2019-05-26T14:09:56.730Z,100153.96
2019-05-26T14:12:44.051Z,100149.27
2019-05-26T14:15:38.232Z,100149.46
2019-05-26T14:18:18.396Z,100142.28
2019-05-26T14:21:05.495Z,100133.58
2019-05-26T14:23:55.755Z,100128.73
2019-05-26T14:26:42.585Z,100126.16
2019-05-26T14:29:29.614Z,100132.63
2019-05-26T14:32:16.303Z,100127.59
2019-05-26T14:35:03.749Z,100127.72
2019-05-26T14:37:50.696Z,100120.79
2019-05-26T14:40:38.056Z,100122.98
2019-05-26T14:43:25.075Z,100121.41
2019-05-26T14:46:12.211Z,100115.46
2019-05-26T14:48:59.589Z,100109.23
2019-05-26T14:51:46.683Z,100100.80
2019-05-26T14:54:33.775Z,100110.29
2019-05-26T14:57:21.558Z,100104.00
2019-05-26T15:00:10.900Z,100103.85
2019-05-26T15:02:57.838Z,100100.92
2019-05-26T15:05:45.054Z,100103.75
2019-05-26T15:08:32.104Z,100098.97
2019-05-26T15:11:19.032Z,100102.03
2019-05-26T15:14:05.864Z,100100.75
2019-05-26T15:16:53.240Z,100100.48
2019-05-26T15:19:40.123Z,100095.66
2019-05-26T15:22:27.080Z,100083.17
2019-05-26T15:25:14.179Z,100087.44
2019-05-26T15:28:02.539Z,100081.94
2019-05-26T15:30:49.308Z,100087.27
2019-05-26T15:33:36.939Z,100080.70
2019-05-26T15:36:23.540Z,100085.86
2019-05-26T15:39:10.778Z,100085.08
2019-05-26T15:41:57.806Z,100081.86
2019-05-26T15:44:44.819Z,100076.63
2019-05-26T15:47:34.582Z,100079.51
2019-05-26T15:50:21.577Z,100069.40
2019-05-26T15:53:08.915Z,100071.53
2019-05-26T15:55:55.682Z,100069.45
2019-05-26T15:58:42.802Z,100067.97
2019-05-26T16:01:30.177Z,100056.88
2019-05-26T16:04:16.992Z,100057.93
2019-05-26T16:07:13.402Z,100056.36
2019-05-26T16:10:00.196Z,100054.63
2019-05-26T16:12:46.828Z,100055.70
2019-05-26T16:15:36.654Z,100058.34
2019-05-26T16:18:23.234Z,100050.14
2019-05-26T16:21:26.692Z,100057.19
2019-05-26T16:23:57.460Z,100053.81
2019-05-26T16:26:44.241Z,100036.77
2019-05-26T16:29:31.457Z,100042.50
2019-05-26T16:32:19.097Z,100046.84
2019-05-26T16:35:05.134Z,100051.23
2019-05-26T16:37:52.216Z,100047.45
2019-05-26T16:40:42.356Z,100046.77
2019-05-26T16:43:29.042Z,100041.52
2019-05-26T16:46:18.761Z,100039.50
2019-05-26T16:49:08.960Z,100044.25
2019-05-26T16:51:58.980Z,100037.86
2019-05-26T16:54:46.341Z,100044.27
2019-05-26T16:57:42.906Z,100039.31
2019-05-26T17:00:29.845Z,100034.68
2019-05-26T17:03:16.987Z,100040.11
2019-05-26T17:06:07.898Z,100042.35
2019-05-26T17:08:53.395Z,100039.68
2019-05-26T17:11:41.018Z,100041.09
2019-05-26T17:14:27.847Z,100039.19
2019-05-26T17:17:15.753Z,100037.91
2019-05-26T17:20:03.167Z,100037.42
2019-05-26T17:22:50.190Z,100037.08
2019-05-26T17:25:37.199Z,100035.66
2019-05-26T17:28:24.572Z,100035.39
2019-05-26T17:31:17.705Z,100032.48
2019-05-26T17:34:05.305Z,100027.39
2019-05-26T17:36:51.748Z,100035.12
2019-05-26T17:39:39.251Z,100026.58
2019-05-26T17:42:27.674Z,100027.30
2019-05-26T17:45:14.501Z,100027.40
2019-05-26T17:48:01.335Z,100024.78
2019-05-26T17:50:48.277Z,100023.03
2019-05-26T17:53:35.316Z,100019.30
2019-05-26T17:56:22.487Z,100018.37
2019-05-26T17:59:10.184Z,100017.05
2019-05-26T18:02:10.908Z,100011.91
2019-05-26T18:04:57.716Z,100011.75
2019-05-26T18:07:45.017Z,100011.56
2019-05-26T18:10:32.109Z,100007.04
2019-05-26T18:13:19.302Z,100008.34
2019-05-26T18:16:06.291Z,100011.86
2019-05-26T18:18:53.507Z,100011.80
2019-05-26T18:21:40.416Z,100005.70
2019-05-26T18:24:27.159Z,100001.02
2019-05-26T18:27:14.099Z,100000.61
2019-05-26T18:30:01.006Z,100000.69
2019-05-26T18:32:54.060Z,100002.23
2019-05-26T18:35:40.838Z,99998.28
2019-05-26T18:38:28.004Z,99998.03
2019-05-26T18:41:15.052Z,99996.52
2019-05-26T18:44:02.449Z,100002.56
2019-05-26T18:46:53.204Z,100001.05
2019-05-26T18:49:36.941Z,100000.55
2019-05-26T18:52:24.516Z,99993.92
2019-05-26T18:55:11.466Z,99992.57
2019-05-26T18:57:58.674Z,99997.92
2019-05-26T19:00:45.594Z,99999.02
2019-05-26T19:03:35.966Z,99993.95
2019-05-26T19:06:37.229Z,99998.20
2019-05-26T19:09:27.493Z,100000.21
2019-05-26T19:12:14.915Z,99994.80
2019-05-26T19:15:09.231Z,99997.58
2019-05-26T19:17:56.575Z,99994.33
2019-05-26T19:20:43.641Z,100003.77
2019-05-26T19:23:30.852Z,100001.98
2019-05-26T19:26:18.028Z,100001.88
2019-05-26T19:29:04.758Z,99993.48
2019-05-26T19:32:01.644Z,99993.56
2019-05-26T19:34:48.790Z,99996.35
2019-05-26T19:37:39.125Z,99999.23
2019-05-26T19:40:25.935Z,99998.22
2019-05-26T19:43:13.133Z,100000.05
2019-05-26T19:46:04.268Z,99990.56
2019-05-26T19:48:51.591Z,99993.36
2019-05-26T19:51:41.926Z,99995.05
2019-05-26T19:54:26.543Z,99989.55
2019-05-26T19:57:13.650Z,99991.09
2019-05-26T20:00:01.596Z,99991.03
2019-05-26T20:02:49.082Z,99986.98
2019-05-26T20:05:36.219Z,99979.36
2019-05-26T20:08:23.958Z,99980.41
2019-05-26T20:11:11.369Z,99969.94
2019-05-26T20:13:58.090Z,99970.24
2019-05-26T20:16:45.490Z,99972.78
2019-05-26T20:22:38.037Z,99966.94
2019-05-26T20:25:25.030Z,99960.36
2019-05-26T20:28:12.065Z,99961.23
2019-05-26T20:30:58.603Z,99959.36
2019-05-26T20:33:45.393Z,99954.02
2019-05-26T20:36:32.624Z,99951.39
2019-05-26T20:39:22.960Z,99960.66
2019-05-26T20:42:10.183Z,99955.86
2019-05-26T20:44:57.152Z,99956.44
2019-05-26T20:48:05.778Z,99958.55
2019-05-26T20:50:58.453Z,99954.18
2019-05-26T20:53:45.299Z,99949.66
2019-05-26T20:56:32.444Z,99952.76
2019-05-26T20:59:20.143Z,99944.04
2019-05-26T21:02:07.040Z,99948.74
2019-05-26T21:04:53.824Z,99952.81
2019-05-26T21:07:56.470Z,99952.91
2019-05-26T21:10:51.799Z,99947.02
2019-05-26T21:13:38.547Z,99946.82
2019-05-26T21:16:25.577Z,99943.74
2019-05-26T21:19:12.885Z,99939.38
2019-05-26T21:22:02.579Z,99939.75
2019-05-26T21:24:49.379Z,99939.23
2019-05-26T21:27:36.484Z,99944.75
2019-05-26T21:30:23.726Z,99935.38
2019-05-26T21:33:10.342Z,99934.52
2019-05-26T21:35:57.147Z,99929.17
2019-05-26T21:38:44.430Z,99926.22
2019-05-26T21:41:37.364Z,99923.90
2019-05-26T21:44:24.581Z,99917.66
2019-05-26T21:47:20.602Z,99931.45
2019-05-26T21:50:26.953Z,99924.83
2019-05-26T21:53:14.149Z,99925.36
2019-05-26T21:56:01.134Z,99919.30
2019-05-26T21:58:47.932Z,99921.52
2019-05-26T22:01:35.418Z,99918.22
2019-05-26T22:04:22.688Z,99916.09
2019-05-26T22:07:09.988Z,99913.75
2019-05-26T22:09:58.952Z,99907.70
2019-05-26T22:12:49.046Z,99905.28
2019-05-26T22:15:41.457Z,99896.37
2019-05-26T22:18:29.786Z,99898.19
2019-05-26T22:21:16.730Z,99892.53
2019-05-26T22:24:04.857Z,99883.55
2019-05-26T22:26:51.641Z,99879.30
2019-05-26T22:29:39.071Z,99880.80
2019-05-26T22:32:26.361Z,99873.76
2019-05-26T22:35:13.043Z,99868.36
2019-05-26T22:38:01.043Z,99873.68
2019-05-26T22:40:48.472Z,99868.17
2019-05-26T22:46:45.174Z,99864.30
2019-05-26T22:49:32.189Z,99865.80
2019-05-26T22:52:19.103Z,99860.67
2019-05-26T22:55:06.174Z,99863.20
2019-05-26T22:58:21.039Z,99859.55
2019-05-26T23:01:08.453Z,99870.38
2019-05-26T23:03:55.477Z,99873.82
2019-05-26T23:06:42.162Z,99873.82
2019-05-26T23:09:29.359Z,99879.59
2019-05-26T23:12:49.133Z,99883.19
2019-05-26T23:15:36.252Z,99882.45
2019-05-26T23:18:23.490Z,99880.13
2019-05-26T23:21:10.511Z,99879.56
2019-05-26T23:27:05.952Z,99877.05
2019-05-26T23:29:52.830Z,99875.16
2019-05-26T23:32:41.132Z,99876.21
2019-05-26T23:38:40.664Z,99872.91
2019-05-26T23:41:29.088Z,99867.93
2019-05-26T23:47:22.618Z,99866.80
2019-05-26T23:50:10.597Z,99863.92
2019-05-26T23:52:57.941Z,99865.94
2019-05-26T23:55:45.872Z,99867.92
2019-05-26T23:58:33.893Z,99872.43
